Time;durP1;ratioP1;P1;durP2;ratioP2;P2;SDS_P1;SDS_P2;PMS_P1;PMS_P2;Temp;Humidity;BMP_temperature;BMP_pressure;BME280_temperature;BME280_humidity;BME280_pressure;Samples;Min_cycle;Max_cycle;Signal;HPM_P1;HPM_P2
2023/09/10 00:00:30;;;;;;;558.17;524.47;;;17.20;99.90;;;;;;5053108;28;20513;-72
2023/09/10 00:02:57;;;;;;;582.90;546.57;;;17.30;99.90;;;;;;5052649;28;20455;-73
2023/09/10 00:05:24;;;;;;;622.10;584.20;;;17.30;99.90;;;;;;5052759;28;20551;-72
2023/09/10 00:07:52;;;;;;;555.97;523.13;;;17.30;99.90;;;;;;5052558;28;20460;-72
2023/09/10 00:10:19;;;;;;;567.83;535.70;;;17.30;99.90;;;;;;5052854;28;20557;-72
2023/09/10 00:12:46;;;;;;;503.97;476.63;;;17.20;99.90;;;;;;5052798;28;20541;-72
2023/09/10 00:15:13;;;;;;;598.83;563.73;;;17.20;99.90;;;;;;5052743;28;20535;-72
2023/09/10 00:17:40;;;;;;;755.60;707.63;;;17.10;99.90;;;;;;5052814;28;20460;-72
2023/09/10 00:20:10;;;;;;;786.40;736.23;;;17.20;99.90;;;;;;5052483;28;20446;-72
2023/09/10 00:22:37;;;;;;;715.63;674.23;;;17.30;99.90;;;;;;5052699;28;20453;-72
2023/09/10 00:25:06;;;;;;;615.50;582.60;;;17.20;99.90;;;;;;5052668;28;20452;-72
2023/09/10 00:27:33;;;;;;;510.20;484.60;;;17.20;99.90;;;;;;5052737;28;20798;-72
2023/09/10 00:30:00;;;;;;;483.73;459.50;;;17.00;99.90;;;;;;5052418;28;20582;-72
2023/09/10 00:32:27;;;;;;;487.67;461.70;;;17.00;99.90;;;;;;5052511;28;20534;-72
2023/09/10 00:34:54;;;;;;;493.03;468.53;;;16.90;99.90;;;;;;5052506;28;20453;-72
2023/09/10 00:37:21;;;;;;;501.17;475.57;;;16.90;99.90;;;;;;5052360;28;20489;-72
2023/09/10 00:39:48;;;;;;;508.37;482.27;;;16.80;99.90;;;;;;5052161;28;20509;-72
2023/09/10 00:42:17;;;;;;;518.47;491.27;;;16.80;99.90;;;;;;5052553;28;20777;-72
2023/09/10 00:44:44;;;;;;;589.57;556.37;;;16.80;99.90;;;;;;5052521;28;20544;-72
2023/09/10 00:47:11;;;;;;;599.60;564.60;;;16.70;99.90;;;;;;5052702;28;20542;-72
2023/09/10 00:49:38;;;;;;;675.83;636.23;;;16.70;99.90;;;;;;5051773;28;20477;-72
2023/09/10 00:52:06;;;;;;;686.30;645.80;;;16.80;99.90;;;;;;5052483;28;20530;-72
2023/09/10 00:54:34;;;;;;;695.93;652.87;;;16.80;99.90;;;;;;5052464;28;20451;-72
2023/09/10 00:57:02;;;;;;;667.07;626.57;;;16.80;99.90;;;;;;5052325;28;20854;-72
2023/09/10 00:59:31;;;;;;;650.90;613.20;;;16.80;99.90;;;;;;5051931;28;20444;-72
2023/09/10 01:01:59;;;;;;;593.47;560.77;;;16.80;99.90;;;;;;5052083;28;20457;-72
2023/09/10 01:04:26;;;;;;;602.20;567.83;;;16.70;99.90;;;;;;5052351;28;20478;-72
2023/09/10 01:06:53;;;;;;;614.17;579.27;;;16.70;99.90;;;;;;5052438;28;20454;-72
2023/09/10 01:09:20;;;;;;;631.87;594.67;;;16.80;99.90;;;;;;5052415;28;20549;-72
2023/09/10 01:11:57;;;;;;;633.17;595.77;;;16.80;99.90;;;;;;5052142;28;20462;-72
2023/09/10 01:14:29;;;;;;;580.73;548.53;;;16.80;99.90;;;;;;5052070;28;20545;-72
2023/09/10 01:17:05;;;;;;;590.30;556.50;;;16.70;99.90;;;;;;5054080;28;20532;-72
2023/09/10 01:20:11;;;;;;;646.80;609.97;;;16.60;99.90;;;;;;5055929;28;20449;-72
2023/09/10 01:22:45;;;;;;;660.80;622.40;;;16.60;99.90;;;;;;5056082;28;20950;-72
2023/09/10 01:25:14;;;;;;;677.40;639.27;;;16.60;99.90;;;;;;5056282;28;20438;-72
2023/09/10 01:27:43;;;;;;;658.90;621.43;;;16.50;99.90;;;;;;5055919;28;20460;-72
2023/09/10 01:30:11;;;;;;;672.93;633.27;;;16.50;99.90;;;;;;5055782;28;20815;-72
2023/09/10 01:32:42;;;;;;;730.27;685.73;;;16.50;99.90;;;;;;5055688;28;20511;-72
2023/09/10 01:35:18;;;;;;;745.20;699.90;;;16.50;99.90;;;;;;5056085;28;20461;-72
2023/09/10 01:37:51;;;;;;;752.67;706.47;;;16.60;99.90;;;;;;5055998;28;20633;-73
2023/09/10 01:40:27;;;;;;;758.77;712.13;;;16.50;99.90;;;;;;5055657;28;20531;-72
2023/09/10 01:42:54;;;;;;;789.70;740.93;;;16.50;99.90;;;;;;5055911;28;20528;-72
2023/09/10 01:45:23;;;;;;;803.00;752.60;;;16.60;99.90;;;;;;5055577;28;20458;-72
2023/09/10 01:47:50;;;;;;;782.80;733.03;;;16.60;99.90;;;;;;5055525;28;20481;-72
2023/09/10 01:50:18;;;;;;;779.80;730.23;;;16.70;99.90;;;;;;5055808;28;20569;-72
2023/09/10 01:52:44;;;;;;;783.67;733.77;;;16.70;99.90;;;;;;5055516;28;20452;-72
2023/09/10 01:55:11;;;;;;;767.97;719.40;;;16.80;99.90;;;;;;5055466;28;20450;-72
2023/09/10 01:57:39;;;;;;;754.13;706.27;;;16.80;99.90;;;;;;5055434;28;20450;-72
2023/09/10 02:00:09;;;;;;;759.93;712.13;;;16.80;99.90;;;;;;5055214;28;20813;-72
2023/09/10 02:02:36;;;;;;;751.13;704.20;;;16.80;99.90;;;;;;5055322;28;20455;-72
2023/09/10 02:05:03;;;;;;;734.20;687.80;;;16.80;99.90;;;;;;5055566;28;20447;-72
2023/09/10 02:07:30;;;;;;;751.77;703.87;;;16.80;99.90;;;;;;5055403;28;20451;-72
2023/09/10 02:09:58;;;;;;;752.23;704.23;;;16.80;99.90;;;;;;5054989;28;20474;-72
2023/09/10 02:12:25;;;;;;;755.83;707.37;;;16.80;99.90;;;;;;5055830;28;20538;-72
2023/09/10 02:14:53;;;;;;;766.10;717.63;;;16.80;99.90;;;;;;5054936;28;20454;-72
2023/09/10 02:17:20;;;;;;;769.60;720.77;;;16.70;99.90;;;;;;5055372;28;20455;-72
2023/09/10 02:19:47;;;;;;;780.77;731.07;;;16.70;99.90;;;;;;5055054;28;20457;-72
2023/09/10 02:22:14;;;;;;;793.67;742.80;;;16.70;99.90;;;;;;5055058;28;20804;-72
2023/09/10 02:24:41;;;;;;;795.53;745.03;;;16.70;99.90;;;;;;5055138;28;20454;-72
2023/09/10 02:27:08;;;;;;;816.27;763.60;;;16.70;99.90;;;;;;5054711;28;20479;-72
2023/09/10 02:29:35;;;;;;;832.23;776.90;;;16.70;99.90;;;;;;5054406;28;20454;-72
2023/09/10 02:32:03;;;;;;;841.10;785.67;;;16.70;99.90;;;;;;5054960;28;20888;-72
2023/09/10 02:34:30;;;;;;;831.07;776.67;;;16.80;99.90;;;;;;5054779;28;20451;-72
2023/09/10 02:36:57;;;;;;;834.37;779.13;;;16.80;99.90;;;;;;5054587;28;20961;-72
2023/09/10 02:39:24;;;;;;;849.40;793.43;;;16.80;99.90;;;;;;5054534;28;20538;-72
2023/09/10 02:41:50;;;;;;;867.00;809.43;;;16.80;99.90;;;;;;5054747;28;20457;-72
2023/09/10 02:44:17;;;;;;;859.20;802.47;;;16.80;99.90;;;;;;5054576;28;20542;-72
2023/09/10 02:46:44;;;;;;;855.00;798.40;;;16.80;99.90;;;;;;5054415;28;20526;-72
2023/09/10 02:49:12;;;;;;;850.70;794.10;;;16.80;99.90;;;;;;5054409;28;20458;-72
2023/09/10 02:51:39;;;;;;;863.43;806.50;;;16.80;99.90;;;;;;5054473;28;20482;-72
2023/09/10 02:54:07;;;;;;;876.30;818.30;;;16.80;99.90;;;;;;5054453;28;20537;-72
2023/09/10 02:56:33;;;;;;;859.93;802.27;;;16.80;99.90;;;;;;5054375;28;20533;-72
2023/09/10 02:59:00;;;;;;;870.23;812.13;;;16.80;99.90;;;;;;5054037;28;20454;-72
2023/09/10 03:01:27;;;;;;;862.47;805.67;;;16.70;99.90;;;;;;5054145;28;20454;-72
2023/09/10 03:03:54;;;;;;;866.30;808.87;;;16.70;99.90;;;;;;5054310;28;20833;-72
2023/09/10 03:06:22;;;;;;;858.43;801.07;;;16.70;99.90;;;;;;5054227;28;20451;-72
2023/09/10 03:08:49;;;;;;;841.17;784.70;;;16.70;99.90;;;;;;5053803;28;20458;-72
2023/09/10 03:11:16;;;;;;;836.67;781.13;;;16.70;99.90;;;;;;5053905;28;20493;-72
2023/09/10 03:13:43;;;;;;;833.53;778.03;;;16.60;99.90;;;;;;5054514;28;20451;-72
2023/09/10 03:16:09;;;;;;;839.00;782.93;;;16.60;99.90;;;;;;5054071;28;20461;-72
2023/09/10 03:18:36;;;;;;;830.40;774.90;;;16.60;99.90;;;;;;5053709;28;20451;-72
2023/09/10 03:21:04;;;;;;;840.37;784.63;;;16.50;99.90;;;;;;5053989;28;20456;-72
2023/09/10 03:23:32;;;;;;;855.37;798.33;;;16.50;99.90;;;;;;5053709;28;20941;-72
2023/09/10 03:25:59;;;;;;;854.57;797.37;;;16.50;99.90;;;;;;5053935;28;20817;-72
2023/09/10 03:28:26;;;;;;;860.13;802.90;;;16.50;99.90;;;;;;5053505;28;20482;-72
2023/09/10 03:30:57;;;;;;;853.87;797.13;;;16.50;99.90;;;;;;5053781;28;20565;-73
2023/09/10 03:33:24;;;;;;;855.30;798.37;;;16.50;99.90;;;;;;5053770;28;20451;-73
2023/09/10 03:35:51;;;;;;;866.90;809.13;;;16.50;99.90;;;;;;5053662;28;20905;-72
2023/09/10 03:38:18;;;;;;;865.97;807.87;;;16.50;99.90;;;;;;5053410;28;20807;-72
2023/09/10 03:40:46;;;;;;;862.67;804.30;;;16.50;99.90;;;;;;5052777;28;20533;-72
2023/09/10 03:43:13;;;;;;;861.47;802.97;;;16.50;99.90;;;;;;5053234;28;20455;-72
2023/09/10 03:45:39;;;;;;;874.17;815.53;;;16.40;99.90;;;;;;5053573;28;20532;-73
2023/09/10 03:48:06;;;;;;;925.37;861.23;;;16.40;99.90;;;;;;5053211;28;20454;-73
2023/09/10 03:50:33;;;;;;;939.47;873.77;;;16.40;99.90;;;;;;5053523;28;20900;-73
2023/09/10 03:53:00;;;;;;;956.67;887.97;;;16.40;99.90;;;;;;5053270;28;20537;-72
2023/09/10 03:55:27;;;;;;;949.23;881.03;;;16.40;99.90;;;;;;5052985;28;20451;-72
2023/09/10 03:57:55;;;;;;;923.20;858.70;;;16.40;99.90;;;;;;5053094;28;20542;-72
2023/09/10 04:00:22;;;;;;;914.60;852.23;;;16.30;99.90;;;;;;5052953;28;20538;-73
2023/09/10 04:02:49;;;;;;;899.87;840.10;;;16.20;99.90;;;;;;5053192;28;20477;-72
2023/09/10 04:05:16;;;;;;;941.17;874.50;;;16.20;99.90;;;;;;5053176;28;20897;-73
2023/09/10 04:07:43;;;;;;;925.97;861.07;;;16.10;99.90;;;;;;5052946;28;20453;-72
2023/09/10 04:10:10;;;;;;;946.10;879.50;;;16.10;99.90;;;;;;5052445;28;20575;-73
2023/09/10 04:12:37;;;;;;;923.03;861.03;;;16.10;99.90;;;;;;5053131;28;20450;-73
2023/09/10 04:15:07;;;;;;;916.40;853.43;;;16.00;99.90;;;;;;5052393;28;20461;-72
2023/09/10 04:17:33;;;;;;;925.67;860.37;;;16.00;99.90;;;;;;5052894;28;20455;-73
2023/09/10 04:20:00;;;;;;;942.13;875.40;;;16.00;99.90;;;;;;5052788;28;20452;-73
2023/09/10 04:22:27;;;;;;;945.53;875.43;;;16.00;99.90;;;;;;5052655;28;20532;-73
2023/09/10 04:24:54;;;;;;;969.70;895.60;;;16.10;99.90;;;;;;5052615;28;20454;-73
2023/09/10 04:27:21;;;;;;;965.37;890.57;;;16.20;99.90;;;;;;5052763;28;20540;-73
2023/09/10 04:29:48;;;;;;;935.70;867.80;;;16.20;99.90;;;;;;5052622;28;20536;-73
2023/09/10 04:32:16;;;;;;;923.10;857.93;;;16.20;99.90;;;;;;5052598;28;20849;-73
2023/09/10 04:34:43;;;;;;;931.47;864.20;;;16.10;99.90;;;;;;5052563;28;20540;-73
2023/09/10 04:37:10;;;;;;;928.90;861.23;;;16.10;99.90;;;;;;5052321;28;20447;-73
2023/09/10 04:39:38;;;;;;;910.50;845.20;;;16.10;99.90;;;;;;5052168;28;20454;-73
2023/09/10 04:42:05;;;;;;;952.60;880.83;;;16.10;99.90;;;;;;5052341;28;21010;-73
2023/09/10 04:44:34;;;;;;;930.60;864.07;;;16.10;99.90;;;;;;5052535;28;20816;-73
2023/09/10 04:47:01;;;;;;;895.83;833.93;;;16.00;99.90;;;;;;5052453;28;20535;-73
2023/09/10 04:49:29;;;;;;;885.97;826.30;;;16.00;99.90;;;;;;5052096;28;20454;-73
2023/09/10 04:51:56;;;;;;;896.93;836.60;;;15.90;99.90;;;;;;5051256;28;20474;-73
2023/09/10 04:54:23;;;;;;;923.37;858.30;;;15.90;99.90;;;;;;5052449;28;20457;-73
2023/09/10 04:56:53;;;;;;;947.83;875.03;;;15.90;99.90;;;;;;5052247;28;20495;-73
2023/09/10 04:59:20;;;;;;;983.13;902.07;;;16.00;99.90;;;;;;5052422;28;20458;-73
2023/09/10 05:01:48;;;;;;;963.30;887.30;;;16.20;99.90;;;;;;5052147;28;20533;-73
2023/09/10 05:04:15;;;;;;;929.77;856.27;;;16.20;99.90;;;;;;5051993;28;20450;-73
2023/09/10 05:06:43;;;;;;;935.00;863.37;;;16.20;99.90;;;;;;5052315;28;20545;-73
2023/09/10 05:09:10;;;;;;;927.87;857.23;;;16.30;99.90;;;;;;5051644;28;20454;-73
2023/09/10 05:11:37;;;;;;;929.97;861.10;;;16.30;99.90;;;;;;5051826;28;21059;-73
2023/09/10 05:14:04;;;;;;;905.43;840.00;;;16.30;99.90;;;;;;5051967;28;20450;-73
2023/09/10 05:16:31;;;;;;;898.63;833.87;;;16.30;99.90;;;;;;5051837;28;20447;-73
2023/09/10 05:18:57;;;;;;;892.97;830.13;;;16.30;99.90;;;;;;5051632;28;20454;-73
2023/09/10 05:21:24;;;;;;;892.93;830.07;;;16.30;99.90;;;;;;5052207;28;20541;-73
2023/09/10 05:23:53;;;;;;;884.97;823.67;;;16.30;99.90;;;;;;5052113;28;20460;-73
2023/09/10 05:26:21;;;;;;;901.80;839.40;;;16.30;99.90;;;;;;5051967;28;20538;-73
2023/09/10 05:28:47;;;;;;;893.43;830.53;;;16.30;99.90;;;;;;5051523;28;20932;-73
2023/09/10 05:31:14;;;;;;;902.30;838.90;;;16.30;99.90;;;;;;5051781;28;20566;-73
2023/09/10 05:33:41;;;;;;;918.13;852.20;;;16.40;99.90;;;;;;5052003;28;20453;-73
2023/09/10 05:36:08;;;;;;;916.53;849.70;;;16.50;99.90;;;;;;5051538;28;20461;-73
2023/09/10 05:38:35;;;;;;;913.63;847.53;;;16.50;99.90;;;;;;5051620;28;20821;-74
2023/09/10 05:41:04;;;;;;;895.83;831.10;;;16.60;99.90;;;;;;5051702;28;20936;-72
2023/09/10 05:43:32;;;;;;;902.77;836.90;;;16.70;99.90;;;;;;5051414;28;20465;-70
2023/09/10 05:45:59;;;;;;;904.10;836.60;;;16.70;99.90;;;;;;5051625;28;20540;-70
2023/09/10 05:48:25;;;;;;;909.80;841.93;;;16.80;99.90;;;;;;5051425;28;20530;-70
2023/09/10 05:50:58;;;;;;;948.60;875.70;;;16.80;99.90;;;;;;5051860;28;20456;-70
2023/09/10 05:53:25;;;;;;;941.77;866.77;;;17.00;99.90;;;;;;5051735;28;20457;-70
2023/09/10 05:55:55;;;;;;;941.60;864.53;;;17.10;99.90;;;;;;5051403;28;20953;-70
2023/09/10 05:58:24;;;;;;;938.37;862.23;;;17.30;99.90;;;;;;5051187;28;20458;-70
2023/09/10 06:00:52;;;;;;;940.00;862.90;;;17.50;99.90;;;;;;5051699;28;20448;-70
2023/09/10 06:03:19;;;;;;;941.33;866.27;;;17.60;99.90;;;;;;5053767;28;20447;-70
2023/09/10 06:05:45;;;;;;;926.40;853.57;;;17.80;99.90;;;;;;5055315;28;20447;-70
2023/09/10 06:08:12;;;;;;;915.40;843.93;;;17.90;99.90;;;;;;5055057;28;20451;-70
2023/09/10 06:10:39;;;;;;;913.97;845.00;;;18.00;99.90;;;;;;5054937;28;20467;-70
2023/09/10 06:13:06;;;;;;;893.10;827.25;;;18.20;99.90;;;;;;5054550;28;20454;-70
2023/09/10 06:15:34;;;;;;;860.57;799.40;;;18.30;99.90;;;;;;5054805;28;20200;-72
2023/09/10 06:18:01;;;;;;;840.60;781.97;;;18.40;99.90;;;;;;5055153;28;20548;-71
2023/09/10 06:20:28;;;;;;;834.13;776.90;;;18.60;99.90;;;;;;5054885;28;20539;-71
2023/09/10 06:22:56;;;;;;;825.53;770.33;;;18.60;99.90;;;;;;5054889;28;20849;-71
2023/09/10 06:25:23;;;;;;;795.83;742.30;;;18.70;99.90;;;;;;5054700;28;20489;-71
2023/09/10 06:27:51;;;;;;;789.23;736.77;;;18.90;99.90;;;;;;5054608;28;20950;-71
2023/09/10 06:30:17;;;;;;;773.27;723.67;;;18.90;99.90;;;;;;5054712;28;20450;-71
2023/09/10 06:32:46;;;;;;;760.30;712.60;;;19.00;99.90;;;;;;5055044;28;20584;-71
2023/09/10 06:35:12;;;;;;;750.67;703.87;;;19.10;99.90;;;;;;5054748;28;20454;-71
2023/09/10 06:37:40;;;;;;;738.97;693.73;;;19.10;99.90;;;;;;5054563;28;20823;-71
2023/09/10 06:40:08;;;;;;;694.63;653.20;;;19.20;99.90;;;;;;5054421;28;20454;-68
2023/09/10 06:42:35;;;;;;;685.90;646.13;;;19.30;99.90;;;;;;5054853;28;20453;-71
2023/09/10 06:45:02;;;;;;;648.87;612.47;;;19.40;99.90;;;;;;5054706;28;20453;-71
2023/09/10 06:47:28;;;;;;;630.23;594.50;;;19.40;99.90;;;;;;5054492;28;20453;-71
2023/09/10 06:49:57;;;;;;;582.57;550.10;;;19.60;99.90;;;;;;5054150;28;20455;-70
2023/09/10 06:52:23;;;;;;;544.97;515.57;;;19.60;99.90;;;;;;5054328;28;20475;-70
2023/09/10 06:54:51;;;;;;;514.70;487.53;;;19.70;99.90;;;;;;5054149;28;20455;-70
2023/09/10 06:57:17;;;;;;;490.33;465.03;;;19.80;99.90;;;;;;5054454;28;20449;-70
2023/09/10 06:59:44;;;;;;;447.40;425.23;;;19.90;99.90;;;;;;5053940;28;20957;-70
2023/09/10 07:02:11;;;;;;;434.80;412.90;;;20.00;99.90;;;;;;5054217;28;20641;-70
2023/09/10 07:04:47;;;;;;;431.38;409.02;;;20.10;99.90;;;;;;5053314;28;20977;-72
2023/09/10 07:07:18;;;;;;;388.43;370.50;;;20.30;99.90;;;;;;5052480;28;20474;-72
2023/09/10 07:09:45;;;;;;;350.90;335.93;;;20.40;99.90;;;;;;5053049;28;20439;-72
2023/09/10 07:12:11;;;;;;;301.70;289.00;;;20.50;99.90;;;;;;5054175;28;20487;-72
2023/09/10 07:14:38;;;;;;;309.57;296.73;;;20.50;99.90;;;;;;5052903;28;20458;-72
2023/09/10 07:17:06;;;;;;;326.60;312.73;;;20.70;99.90;;;;;;5054029;28;20457;-72
2023/09/10 07:19:33;;;;;;;294.80;282.63;;;20.80;99.90;;;;;;5053654;28;20457;-72
2023/09/10 07:22:00;;;;;;;286.50;274.70;;;20.90;99.90;;;;;;5054127;28;20926;-72
2023/09/10 07:24:28;;;;;;;287.63;275.57;;;21.10;99.90;;;;;;5054073;28;20455;-72
2023/09/10 07:26:55;;;;;;;228.27;219.03;;;21.20;99.90;;;;;;5053875;28;20560;-72
2023/09/10 07:29:25;;;;;;;199.13;190.93;;;21.20;99.90;;;;;;5053534;28;20499;-71
2023/09/10 07:31:52;;;;;;;174.87;166.83;;;21.40;99.90;;;;;;5054106;28;20490;-72
2023/09/10 07:34:19;;;;;;;119.67;114.13;;;21.50;99.90;;;;;;5053478;28;20457;-72
2023/09/10 07:36:46;;;;;;;107.93;102.93;;;21.60;99.90;;;;;;5053533;28;20457;-72
2023/09/10 07:39:13;;;;;;;107.43;102.23;;;21.70;99.90;;;;;;5053675;28;20477;-72
2023/09/10 07:41:41;;;;;;;51.37;47.57;;;21.90;99.90;;;;;;5053723;28;20450;-71
2023/09/10 07:44:08;;;;;;;51.13;47.67;;;22.00;99.90;;;;;;5053455;28;20455;-72
2023/09/10 07:46:35;;;;;;;65.77;62.07;;;22.10;99.90;;;;;;5053255;28;20467;-72
2023/09/10 07:49:02;;;;;;;37.03;34.20;;;22.20;99.90;;;;;;5053020;28;20458;-72
2023/09/10 07:51:29;;;;;;;32.67;30.27;;;22.40;99.90;;;;;;5053310;28;20453;-71
2023/09/10 07:53:55;;;;;;;28.63;26.27;;;22.50;99.90;;;;;;5053407;28;20493;-72
2023/09/10 07:56:22;;;;;;;23.63;21.40;;;22.70;99.90;;;;;;5053268;28;20462;-72
2023/09/10 07:58:50;;;;;;;20.57;17.70;;;22.90;99.90;;;;;;5053044;28;20815;-70
2023/09/10 08:01:18;;;;;;;21.50;16.37;;;23.30;99.90;;;;;;5053075;28;20533;-70
2023/09/10 08:03:45;;;;;;;23.40;15.13;;;23.70;99.90;;;;;;5053284;28;20525;-70
2023/09/10 08:06:11;;;;;;;20.90;16.07;;;24.00;99.90;;;;;;5052979;28;20452;-70
2023/09/10 08:08:39;;;;;;;19.87;14.80;;;24.50;99.90;;;;;;5052962;28;20447;-70
2023/09/10 08:11:05;;;;;;;20.60;14.17;;;24.80;99.90;;;;;;5052903;28;20466;-70
2023/09/10 08:13:32;;;;;;;25.67;14.30;;;25.30;99.90;;;;;;5052832;28;20482;-70
2023/09/10 08:16:00;;;;;;;21.70;13.20;;;25.50;99.90;;;;;;5052735;28;20451;-70
2023/09/10 08:18:27;;;;;;;26.40;14.27;;;25.80;99.90;;;;;;5052656;28;20458;-70
2023/09/10 08:20:54;;;;;;;19.57;13.30;;;26.10;97.90;;;;;;5052925;28;20874;-70
2023/09/10 08:23:21;;;;;;;20.90;13.13;;;26.30;97.60;;;;;;5052829;28;20451;-69
2023/09/10 08:25:51;;;;;;;17.20;11.70;;;26.40;97.60;;;;;;5052521;28;20455;-70
2023/09/10 08:28:18;;;;;;;18.87;11.83;;;26.70;97.50;;;;;;5052479;28;20840;-70
2023/09/10 08:30:45;;;;;;;19.93;12.93;;;27.00;94.40;;;;;;5052813;28;20825;-70
2023/09/10 08:33:13;;;;;;;16.20;11.50;;;27.40;91.90;;;;;;5052965;28;20486;-70
2023/09/10 08:35:45;;;;;;;17.13;12.00;;;27.70;88.90;;;;;;5053005;28;20428;-70
2023/09/10 08:38:12;;;;;;;18.30;11.63;;;27.70;76.50;;;;;;5052371;28;20462;-71
2023/09/10 08:40:46;;;;;;;14.87;9.47;;;28.00;76.70;;;;;;5052527;28;20965;-71
2023/09/10 08:43:16;;;;;;;13.60;10.80;;;28.20;68.60;;;;;;5052791;28;20551;-71
2023/09/10 08:45:43;;;;;;;19.90;10.40;;;28.40;65.30;;;;;;5052890;28;20446;-71
2023/09/10 08:48:14;;;;;;;14.63;9.60;;;28.60;60.40;;;;;;5052619;28;20452;-71
2023/09/10 08:50:42;;;;;;;15.17;9.27;;;28.90;54.20;;;;;;5052288;28;20947;-71
2023/09/10 08:53:13;;;;;;;17.17;9.13;;;28.90;51.80;;;;;;5052381;28;20859;-70
2023/09/10 08:55:45;;;;;;;12.63;9.10;;;29.10;51.90;;;;;;5052318;28;20475;-69
2023/09/10 08:58:13;;;;;;;19.03;8.70;;;29.10;42.90;;;;;;5052378;28;20443;-70
2023/09/10 09:00:42;;;;;;;17.17;9.80;;;29.20;43.00;;;;;;5052515;28;20887;-70
2023/09/10 09:03:10;;;;;;;12.03;9.00;;;29.60;44.20;;;;;;5052468;28;20852;-70
2023/09/10 09:05:40;;;;;;;13.93;8.50;;;29.90;39.30;;;;;;5052273;28;20447;-70
2023/09/10 09:08:11;;;;;;;15.40;8.73;;;29.90;34.20;;;;;;5052037;28;20446;-70
2023/09/10 09:10:40;;;;;;;13.33;8.90;;;30.00;34.20;;;;;;5051971;28;20467;-70
2023/09/10 09:13:10;;;;;;;13.73;7.67;;;30.30;34.50;;;;;;5052306;28;20479;-70
2023/09/10 09:15:39;;;;;;;20.90;7.97;;;30.70;26.50;;;;;;5052174;28;20504;-70
2023/09/10 09:18:14;;;;;;;14.50;8.67;;;30.80;24.30;;;;;;5052250;28;20422;-70
2023/09/10 09:20:46;;;;;;;16.25;8.23;;;31.10;26.60;;;;;;5051534;28;20534;-70
2023/09/10 09:23:20;;;;;;;14.45;8.40;;;31.60;27.00;;;;;;5050775;28;20452;-69
2023/09/10 09:25:51;;;;;;;12.33;7.77;;;32.00;19.70;;;;;;5050007;28;20203;-69
2023/09/10 09:28:18;;;;;;;14.67;9.00;;;32.60;18.90;;;;;;5051378;28;20774;-69
2023/09/10 09:30:45;;;;;;;14.90;8.20;;;32.60;12.40;;;;;;5051310;28;20451;-69
2023/09/10 09:33:12;;;;;;;15.93;8.30;;;32.90;12.60;;;;;;5051296;28;20900;-69
2023/09/10 09:35:39;;;;;;;16.13;8.17;;;32.80;12.40;;;;;;5051361;28;20458;-69
2023/09/10 09:38:10;;;;;;;12.23;8.10;;;33.00;12.50;;;;;;5052950;28;20458;-69
2023/09/10 09:40:37;;;;;;;13.90;8.97;;;33.40;5.00;;;;;;5054591;28;20556;-69
2023/09/10 09:43:07;;;;;;;14.60;8.13;;;32.90;4.60;;;;;;5054850;28;20953;-69
2023/09/10 09:45:35;;;;;;;12.57;8.10;;;33.40;4.90;;;;;;5055010;28;21070;-69
2023/09/10 09:48:03;;;;;;;15.93;7.53;;;33.10;4.70;;;;;;5054674;28;20493;-71
2023/09/10 09:50:30;;;;;;;17.13;9.00;;;33.60;3.30;;;;;;5054677;28;20451;-71
2023/09/10 09:52:57;;;;;;;14.33;8.50;;;33.80;4.20;;;;;;5055383;28;20475;-68
2023/09/10 09:55:28;;;;;;;14.80;6.93;;;33.30;1.00;;;;;;5052284;28;20456;-67
2023/09/10 09:57:55;;;;;;;17.00;9.10;;;33.30;1.00;;;;;;5045028;28;20447;-68
2023/09/10 10:00:22;;;;;;;13.30;7.53;;;33.30;1.00;;;;;;5051540;28;20823;-67
2023/09/10 10:02:48;;;;;;;14.70;7.73;;;33.80;1.00;;;;;;5055434;28;20517;-68
2023/09/10 10:05:16;;;;;;;15.10;8.20;;;34.40;1.00;;;;;;5055337;28;20480;-67
2023/09/10 10:07:43;;;;;;;11.43;8.00;;;35.20;1.00;;;;;;5055192;28;20529;-68
2023/09/10 10:10:15;;;;;;;15.97;6.27;;;34.90;1.00;;;;;;5054875;28;20459;-68
2023/09/10 10:12:46;;;;;;;11.33;6.90;;;34.70;1.00;;;;;;5055199;28;20471;-68
2023/09/10 10:15:14;;;;;;;14.63;7.00;;;35.40;1.00;;;;;;5055093;28;20497;-68
2023/09/10 10:17:43;;;;;;;11.17;7.23;;;35.40;1.00;;;;;;5055178;28;20450;-69
2023/09/10 10:20:13;;;;;;;13.87;6.17;;;35.80;1.00;;;;;;5054856;28;20422;-69
2023/09/10 10:22:40;;;;;;;13.60;7.50;;;36.50;1.00;;;;;;5055490;28;20414;-69
2023/09/10 10:25:08;;;;;;;12.53;7.03;;;36.70;1.00;;;;;;5054696;28;20451;-69
2023/09/10 10:27:36;;;;;;;12.07;6.10;;;36.90;1.00;;;;;;5054869;28;20455;-69
2023/09/10 10:30:05;;;;;;;10.43;6.67;;;36.80;1.00;;;;;;5054820;28;20461;-70
2023/09/10 10:32:39;;;;;;;15.20;8.23;;;36.90;1.00;;;;;;5054841;28;20483;-70
2023/09/10 10:35:09;;;;;;;12.70;7.20;;;36.90;1.00;;;;;;5054994;28;20766;-69
2023/09/10 10:37:48;;;;;;;15.63;6.87;;;36.70;1.00;;;;;;5054678;28;20448;-68
2023/09/10 10:40:19;;;;;;;11.97;6.90;;;36.90;1.00;;;;;;5054653;28;20836;-68
2023/09/10 10:42:50;;;;;;;11.20;6.53;;;36.60;1.00;;;;;;5054699;28;20429;-69
2023/09/10 10:45:19;;;;;;;12.40;6.90;;;37.10;1.00;;;;;;5054637;28;20422;-69
2023/09/10 10:47:48;;;;;;;16.43;7.17;;;37.20;1.00;;;;;;5054497;28;20486;-68
2023/09/10 10:50:20;;;;;;;11.70;6.30;;;37.50;1.00;;;;;;5054029;28;20459;-68
2023/09/10 10:52:55;;;;;;;10.27;6.70;;;37.90;1.00;;;;;;5054408;28;20475;-68
2023/09/10 10:55:23;;;;;;;14.77;7.17;;;38.50;1.00;;;;;;5054417;28;20821;-70
2023/09/10 10:57:50;;;;;;;16.77;7.43;;;38.80;1.00;;;;;;5054242;28;20543;-69
2023/09/10 11:00:19;;;;;;;12.87;6.10;;;38.90;1.00;;;;;;5053957;28;20458;-70
2023/09/10 11:02:48;;;;;;;9.63;6.13;;;38.80;1.00;;;;;;5053922;28;20428;-69
2023/09/10 11:05:15;;;;;;;12.70;6.23;;;38.70;1.00;;;;;;5054223;28;20965;-70
2023/09/10 11:07:42;;;;;;;12.60;6.10;;;38.10;1.00;;;;;;5054228;28;20451;-70
2023/09/10 11:10:40;;;;;;;14.80;6.90;;;38.70;1.00;;;;;;5053196;28;20438;-68
2023/09/10 11:13:07;;;;;;;17.87;6.10;;;38.40;1.00;;;;;;5042085;28;20482;-68
2023/09/10 11:16:16;;;;;;;14.70;5.70;;;38.90;1.00;;;;;;5054654;28;20448;-68
2023/09/10 11:18:43;;;;;;;12.53;6.60;;;39.30;1.00;;;;;;5054072;28;20424;-68
2023/09/10 11:21:11;;;;;;;10.37;5.83;;;39.50;1.00;;;;;;5054242;28;20447;-68
2023/09/10 11:23:39;;;;;;;15.90;6.43;;;39.40;1.00;;;;;;5054415;28;20453;-68
2023/09/10 11:26:33;;;;;;;14.97;6.43;;;39.30;1.00;;;;;;5054187;28;20421;-67
2023/09/10 11:29:01;;;;;;;10.23;6.50;;;39.30;1.00;;;;;;5039856;28;20468;-67
2023/09/10 11:31:38;;;;;;;11.13;5.63;;;39.40;1.00;;;;;;5053908;28;20984;-67
2023/09/10 11:34:38;;;;;;;14.13;6.13;;;39.70;1.00;;;;;;5054390;28;20421;-67
2023/09/10 11:37:07;;;;;;;11.00;6.10;;;39.60;1.00;;;;;;5041976;28;20444;-68
2023/09/10 11:39:36;;;;;;;11.07;6.17;;;39.50;1.00;;;;;;5033912;28;20426;-68
2023/09/10 11:42:07;;;;;;;21.30;7.53;;;39.80;1.00;;;;;;5033808;28;20814;-68
2023/09/10 11:44:37;;;;;;;16.40;6.30;;;40.30;1.00;;;;;;5034024;28;20836;-68
2023/09/10 11:47:06;;;;;;;13.97;5.83;;;40.30;1.00;;;;;;5033918;28;20490;-68
2023/09/10 11:49:33;;;;;;;10.90;5.73;;;40.10;1.00;;;;;;5033445;28;20426;-68
2023/09/10 11:52:00;;;;;;;16.20;6.23;;;39.60;1.00;;;;;;5033870;28;20810;-68
2023/09/10 11:54:31;;;;;;;12.90;5.73;;;40.00;1.00;;;;;;5033651;28;20429;-68
2023/09/10 11:56:59;;;;;;;13.43;6.03;;;39.60;1.00;;;;;;5038358;28;20428;-68
2023/09/10 11:59:29;;;;;;;13.07;6.43;;;40.40;1.00;;;;;;5053375;28;20486;-68
2023/09/10 12:01:57;;;;;;;13.20;5.77;;;40.50;1.00;;;;;;5052734;28;20791;-68
2023/09/10 12:04:33;;;;;;;9.57;5.70;;;41.20;1.00;;;;;;5052933;28;20453;-68
2023/09/10 12:07:01;;;;;;;10.80;5.60;;;41.40;1.00;;;;;;5052719;28;20813;-68
2023/09/10 12:09:30;;;;;;;12.97;6.20;;;41.00;1.00;;;;;;5053024;28;20421;-68
2023/09/10 12:12:01;;;;;;;12.00;6.10;;;41.20;1.00;;;;;;5035210;28;20503;-68
2023/09/10 12:14:28;;;;;;;11.93;5.60;;;41.00;1.00;;;;;;5033015;28;20505;-68
2023/09/10 12:16:55;;;;;;;13.40;5.93;;;41.10;1.00;;;;;;5033297;28;20448;-68
2023/09/10 12:19:22;;;;;;;11.83;5.77;;;40.40;1.00;;;;;;5032495;28;20452;-67
2023/09/10 12:21:51;;;;;;;14.77;5.93;;;41.40;1.00;;;;;;5033634;28;20423;-67
2023/09/10 12:24:18;;;;;;;11.67;6.57;;;40.80;1.00;;;;;;5033595;28;20824;-67
2023/09/10 12:26:45;;;;;;;13.33;5.50;;;40.00;1.00;;;;;;5033502;28;20476;-67